createdAt,value
2019-03-10T00:00:47.114Z,6.44
2019-03-10T00:03:13.183Z,6.48
2019-03-10T00:05:39.227Z,6.49
2019-03-10T00:08:07.724Z,6.55
2019-03-10T00:10:33.485Z,6.59
2019-03-10T00:12:59.547Z,6.64
2019-03-10T00:15:25.734Z,6.69
2019-03-10T00:17:56.703Z,6.68
2019-03-10T00:20:22.800Z,6.71
2019-03-10T00:22:48.874Z,6.69
2019-03-10T00:25:15.128Z,6.69
2019-03-10T00:27:41.094Z,6.67
2019-03-10T00:30:09.728Z,6.73
2019-03-10T00:32:35.913Z,6.78
2019-03-10T00:35:03.135Z,6.49
2019-03-10T00:37:29.287Z,6.42
2019-03-10T00:40:38.851Z,6.49
2019-03-10T00:43:46.058Z,6.51
2019-03-10T00:46:27.855Z,6.45
2019-03-10T00:49:31.162Z,6.51
2019-03-10T00:52:21.764Z,6.48
2019-03-10T00:54:47.947Z,6.44
2019-03-10T00:57:13.988Z,6.43
2019-03-10T00:59:42.944Z,6.46
2019-03-10T01:02:08.927Z,6.50
2019-03-10T01:04:34.955Z,6.50
2019-03-10T01:07:02.134Z,6.41
2019-03-10T01:09:28.270Z,6.41
2019-03-10T01:11:54.401Z,6.44
2019-03-10T01:14:20.607Z,6.45
2019-03-10T01:16:46.728Z,6.50
2019-03-10T01:19:12.893Z,6.51
2019-03-10T01:21:38.948Z,6.50
2019-03-10T01:24:05.130Z,6.38
2019-03-10T01:26:32.624Z,6.25
2019-03-10T01:28:58.922Z,6.26
2019-03-10T01:32:15.412Z,6.30
2019-03-10T01:35:18.276Z,6.36
2019-03-10T01:37:44.434Z,6.35
2019-03-10T01:40:10.397Z,6.30
2019-03-10T01:42:38.554Z,6.27
2019-03-10T01:45:07.696Z,6.27
2019-03-10T01:47:33.947Z,6.33
2019-03-10T01:50:02.017Z,6.38
2019-03-10T01:52:28.231Z,6.39
2019-03-10T01:54:54.320Z,6.41
2019-03-10T01:57:20.339Z,6.45
2019-03-10T01:59:46.444Z,6.48
2019-03-10T02:02:12.622Z,6.51
2019-03-10T02:04:38.764Z,6.50
2019-03-10T02:07:04.824Z,6.52
2019-03-10T02:09:30.947Z,6.51
2019-03-10T02:11:56.926Z,6.50
2019-03-10T02:14:22.892Z,6.45
2019-03-10T02:16:48.926Z,6.47
2019-03-10T02:19:14.983Z,6.46
2019-03-10T02:21:41.232Z,6.43
2019-03-10T02:24:07.277Z,6.37
2019-03-10T02:26:33.493Z,6.33
2019-03-10T02:28:59.709Z,6.33
2019-03-10T02:31:25.793Z,6.34
2019-03-10T02:33:51.927Z,6.34
2019-03-10T02:36:18.247Z,6.34
2019-03-10T02:38:44.372Z,6.38
2019-03-10T02:41:10.554Z,6.41
2019-03-10T02:43:36.777Z,6.42
2019-03-10T02:46:02.894Z,6.42
2019-03-10T02:48:28.941Z,6.39
2019-03-10T02:50:55.204Z,6.37
2019-03-10T02:53:21.157Z,6.34
2019-03-10T02:55:47.325Z,6.34
2019-03-10T02:58:13.467Z,6.34
2019-03-10T03:00:39.650Z,6.34
2019-03-10T03:03:05.811Z,6.40
2019-03-10T03:05:31.881Z,6.46
2019-03-10T03:07:58.122Z,6.46
2019-03-10T03:10:24.240Z,6.48
2019-03-10T03:12:56.327Z,6.45
2019-03-10T03:15:22.253Z,6.40
2019-03-10T03:17:48.187Z,6.34
2019-03-10T03:20:14.260Z,6.20
2019-03-10T03:22:40.286Z,6.18
2019-03-10T03:25:08.346Z,6.07
2019-03-10T03:27:34.527Z,6.03
2019-03-10T03:30:00.631Z,6.00
2019-03-10T03:32:26.838Z,5.95
2019-03-10T03:34:52.808Z,5.96
2019-03-10T03:37:18.830Z,5.96
2019-03-10T03:39:44.873Z,5.98
2019-03-10T03:42:11.027Z,5.92
2019-03-10T03:44:37.054Z,5.92
2019-03-10T03:47:03.120Z,5.93
2019-03-10T03:49:29.164Z,5.89
2019-03-10T03:51:55.233Z,5.79
2019-03-10T03:54:21.176Z,5.78
2019-03-10T03:56:47.110Z,5.64
2019-03-10T03:59:13.025Z,5.62
2019-03-10T04:04:20.626Z,5.68
2019-03-10T04:06:46.720Z,5.61
2019-03-10T04:09:12.668Z,5.60
2019-03-10T04:11:38.654Z,5.49
2019-03-10T04:14:04.627Z,5.50
2019-03-10T04:16:30.550Z,5.41
2019-03-10T04:18:56.471Z,5.42
2019-03-10T04:21:22.522Z,5.42
2019-03-10T04:23:48.653Z,5.42
2019-03-10T04:26:14.694Z,5.37
2019-03-10T04:28:40.848Z,5.40
2019-03-10T04:31:06.938Z,5.44
2019-03-10T04:33:32.848Z,5.42
2019-03-10T04:35:58.786Z,5.43
2019-03-10T04:38:24.804Z,5.41
2019-03-10T04:40:50.746Z,5.39
2019-03-10T04:43:16.681Z,5.36
2019-03-10T04:45:42.584Z,5.29
2019-03-10T04:48:08.746Z,5.16
2019-03-10T04:50:34.771Z,5.14
2019-03-10T04:53:00.740Z,5.01
2019-03-10T04:55:28.581Z,4.95
2019-03-10T04:57:56.445Z,4.87
2019-03-10T05:00:22.371Z,4.84
2019-03-10T05:02:48.320Z,4.79
2019-03-10T05:05:14.383Z,4.76
2019-03-10T05:07:40.333Z,4.65
2019-03-10T05:10:08.657Z,4.72
2019-03-10T05:12:34.586Z,4.80
2019-03-10T05:15:00.555Z,4.74
2019-03-10T05:17:26.592Z,4.68
2019-03-10T05:19:52.524Z,4.68
2019-03-10T05:22:18.427Z,4.66
2019-03-10T05:24:44.490Z,4.66
2019-03-10T05:27:10.415Z,4.65
2019-03-10T05:29:36.341Z,4.58
2019-03-10T05:32:02.306Z,4.59
2019-03-10T05:34:28.319Z,4.57
2019-03-10T05:36:54.251Z,4.55
2019-03-10T05:39:20.178Z,4.54
2019-03-10T05:41:46.113Z,4.56
2019-03-10T05:44:12.030Z,4.51
2019-03-10T05:46:37.987Z,4.53
2019-03-10T05:49:03.914Z,4.48
2019-03-10T05:51:29.926Z,4.53
2019-03-10T05:53:55.838Z,4.51
2019-03-10T05:56:21.749Z,4.49
2019-03-10T05:58:47.670Z,4.52
2019-03-10T06:01:13.582Z,4.52
2019-03-10T06:03:39.598Z,4.50
2019-03-10T06:06:05.543Z,4.47
2019-03-10T06:08:31.462Z,4.48
2019-03-10T06:10:57.397Z,4.50
2019-03-10T06:13:23.451Z,4.51
2019-03-10T06:15:49.367Z,4.57
2019-03-10T06:18:15.293Z,4.57
2019-03-10T06:20:41.211Z,4.55
2019-03-10T06:23:07.130Z,4.61
2019-03-10T06:25:35.086Z,4.64
2019-03-10T06:28:00.875Z,4.68
2019-03-10T06:30:26.898Z,4.68
2019-03-10T06:32:52.820Z,4.67
2019-03-10T06:35:18.783Z,4.68
2019-03-10T06:37:44.788Z,4.69
2019-03-10T06:40:10.783Z,4.74
2019-03-10T06:42:36.705Z,4.74
2019-03-10T06:45:04.168Z,4.80
2019-03-10T06:47:30.201Z,4.82
2019-03-10T06:49:56.156Z,4.84
2019-03-10T06:52:22.208Z,4.83
2019-03-10T06:54:48.142Z,4.81
2019-03-10T06:57:14.209Z,4.87
2019-03-10T06:59:40.136Z,4.88
2019-03-10T07:02:06.062Z,4.89
2019-03-10T07:04:31.997Z,4.93
2019-03-10T07:06:57.936Z,4.94
2019-03-10T07:09:23.872Z,5.00
2019-03-10T07:11:49.849Z,5.02
2019-03-10T07:14:15.769Z,5.05
2019-03-10T07:16:41.697Z,5.06
2019-03-10T07:19:07.614Z,5.08
2019-03-10T07:21:33.547Z,5.13
2019-03-10T07:23:59.628Z,5.16
2019-03-10T07:26:25.712Z,5.23
2019-03-10T07:28:53.546Z,5.32
2019-03-10T07:31:21.406Z,5.35
2019-03-10T07:33:49.231Z,5.41
2019-03-10T07:36:17.302Z,5.48
2019-03-10T07:39:02.120Z,5.51
2019-03-10T07:44:21.703Z,5.59
2019-03-10T07:46:49.555Z,5.61
2019-03-10T07:49:18.209Z,5.64
2019-03-10T07:51:46.521Z,5.66
2019-03-10T07:54:14.720Z,5.69
2019-03-10T07:56:42.797Z,5.74
2019-03-10T08:01:55.914Z,5.84
2019-03-10T08:07:26.990Z,5.96
2019-03-10T08:12:40.439Z,6.13
2019-03-10T08:15:14.667Z,6.25
2019-03-10T08:17:43.181Z,6.35
2019-03-10T08:20:13.914Z,6.43
2019-03-10T08:22:47.480Z,6.44
2019-03-10T08:25:18.357Z,6.47
2019-03-10T08:28:01.905Z,6.47
2019-03-10T08:30:31.006Z,6.51
2019-03-10T08:33:00.808Z,6.52
2019-03-10T08:35:31.539Z,6.52
2019-03-10T08:38:08.154Z,6.54
2019-03-10T08:40:51.751Z,6.50
2019-03-10T08:43:31.613Z,6.50
2019-03-10T08:45:59.559Z,6.55
2019-03-10T08:48:33.383Z,6.63
2019-03-10T08:51:01.439Z,6.66
2019-03-10T08:53:32.385Z,6.70
2019-03-10T08:56:05.793Z,6.72
2019-03-10T09:01:32.381Z,6.76
2019-03-10T09:04:06.003Z,6.82
2019-03-10T09:06:46.105Z,6.85
2019-03-10T09:12:11.769Z,6.94
2019-03-10T09:14:54.298Z,6.95
2019-03-10T09:17:22.236Z,6.98
2019-03-10T09:22:49.139Z,7.05
2019-03-10T09:25:16.985Z,7.10
2019-03-10T09:28:01.692Z,7.13
2019-03-10T09:33:25.991Z,7.22
2019-03-10T09:35:56.762Z,7.31
2019-03-10T09:41:14.083Z,7.42
2019-03-10T09:43:47.946Z,7.48
2019-03-10T09:46:32.402Z,7.54
2019-03-10T09:49:17.233Z,7.62
2019-03-10T09:51:54.158Z,7.60
2019-03-10T09:54:24.974Z,7.58
2019-03-10T09:57:21.852Z,7.62
2019-03-10T10:00:06.354Z,7.63
2019-03-10T10:02:45.916Z,7.74
2019-03-10T10:05:13.984Z,7.81
2019-03-10T10:07:48.080Z,7.78
2019-03-10T10:10:32.452Z,7.79
2019-03-10T10:16:08.706Z,7.81
2019-03-10T10:18:42.943Z,7.85
2019-03-10T10:21:15.768Z,7.93
2019-03-10T10:23:43.576Z,8.05
2019-03-10T10:26:13.221Z,8.08
2019-03-10T10:28:44.970Z,8.06
2019-03-10T10:31:29.969Z,8.15
2019-03-10T10:34:03.135Z,8.16
2019-03-10T10:36:30.964Z,8.22
2019-03-10T10:39:02.075Z,8.27
2019-03-10T10:41:38.890Z,8.28
2019-03-10T10:44:23.393Z,8.33
2019-03-10T10:46:51.421Z,8.38
2019-03-10T10:49:19.242Z,8.42
2019-03-10T10:51:59.427Z,8.48
2019-03-10T10:54:44.113Z,8.52
2019-03-10T10:57:17.992Z,8.53
2019-03-10T10:59:45.855Z,8.52
2019-03-10T11:02:26.971Z,8.49
2019-03-10T11:05:09.028Z,8.53
2019-03-10T11:07:36.878Z,8.49
2019-03-10T11:10:23.563Z,8.56
2019-03-10T11:12:51.572Z,8.51
2019-03-10T11:15:19.440Z,8.57
2019-03-10T11:20:33.660Z,8.54
2019-03-10T11:23:16.873Z,8.58
2019-03-10T11:25:57.905Z,8.60
2019-03-10T11:35:15.492Z,8.70
2019-03-10T11:37:49.074Z,8.71
2019-03-10T11:40:28.942Z,8.72
2019-03-10T11:43:03.184Z,8.74
2019-03-10T11:48:32.593Z,8.77
2019-03-10T11:51:03.346Z,8.81
2019-03-10T11:53:31.324Z,8.85
2019-03-10T11:56:08.385Z,8.87
2019-03-10T12:01:16.393Z,8.96
2019-03-10T12:03:46.957Z,8.99
2019-03-10T12:06:39.490Z,9.02
2019-03-10T12:09:13.623Z,9.04
2019-03-10T12:11:39.547Z,9.04
2019-03-10T12:14:05.463Z,9.02
2019-03-10T12:16:31.485Z,8.99
2019-03-10T12:18:57.504Z,8.96
2019-03-10T12:21:23.556Z,8.87
2019-03-10T12:23:49.526Z,8.87
2019-03-10T12:26:16.858Z,8.84
2019-03-10T12:28:42.768Z,8.81
2019-03-10T12:31:08.913Z,8.75
2019-03-10T12:33:34.950Z,8.82
2019-03-10T12:36:00.898Z,8.83
2019-03-10T12:38:26.923Z,8.83
2019-03-10T12:40:52.940Z,8.79
2019-03-10T12:43:18.889Z,8.80
2019-03-10T12:45:44.808Z,8.72
2019-03-10T12:48:10.767Z,8.69
2019-03-10T12:50:36.694Z,8.70
2019-03-10T12:53:02.625Z,8.73
2019-03-10T12:55:28.571Z,8.73
2019-03-10T12:57:54.707Z,8.70
2019-03-10T13:00:20.666Z,8.76
2019-03-10T13:02:46.599Z,8.84
2019-03-10T13:05:14.310Z,8.83
2019-03-10T13:07:40.224Z,8.87
2019-03-10T13:10:06.179Z,8.89
2019-03-10T13:12:32.094Z,8.90
2019-03-10T13:14:59.799Z,8.88
2019-03-10T13:17:26.396Z,8.82
2019-03-10T13:19:52.578Z,8.83
2019-03-10T13:22:18.542Z,8.80
2019-03-10T13:24:44.507Z,8.82
2019-03-10T13:27:10.433Z,8.83
2019-03-10T13:29:36.402Z,8.88
2019-03-10T13:32:02.332Z,8.93
2019-03-10T13:34:28.266Z,8.92
2019-03-10T13:36:54.360Z,8.93
2019-03-10T13:39:20.266Z,8.92
2019-03-10T13:41:46.371Z,8.93
2019-03-10T13:44:12.409Z,8.92
2019-03-10T13:46:38.474Z,8.90
2019-03-10T13:49:04.497Z,8.94
2019-03-10T13:51:30.531Z,8.96
2019-03-10T13:53:56.458Z,8.99
2019-03-10T13:56:22.417Z,9.00
2019-03-10T13:58:48.365Z,9.00
2019-03-10T14:01:14.274Z,9.01
2019-03-10T14:03:40.213Z,8.96
2019-03-10T14:06:06.257Z,8.91
2019-03-10T14:08:32.315Z,8.84
2019-03-10T14:10:58.231Z,8.89
2019-03-10T14:13:24.148Z,8.93
2019-03-10T14:15:50.213Z,8.93
2019-03-10T14:18:16.327Z,8.95
2019-03-10T14:20:46.532Z,8.95
2019-03-10T14:23:10.072Z,8.98
2019-03-10T14:25:36.208Z,9.00
2019-03-10T14:28:02.223Z,8.99
2019-03-10T14:30:28.158Z,9.02
2019-03-10T14:32:54.089Z,9.02
2019-03-10T14:35:20.025Z,9.05
2019-03-10T14:37:45.936Z,9.04
2019-03-10T14:40:21.869Z,9.08
2019-03-10T14:42:48.169Z,9.06
2019-03-10T14:45:28.810Z,9.08
2019-03-10T14:48:30.231Z,9.11
2019-03-10T14:50:56.509Z,9.12
2019-03-10T14:53:22.819Z,9.10
2019-03-10T14:55:49.224Z,9.11
2019-03-10T14:58:15.198Z,9.06
2019-03-10T15:00:41.112Z,9.02
2019-03-10T15:03:09.367Z,9.08
2019-03-10T15:05:35.388Z,9.04
2019-03-10T15:08:01.630Z,9.04
2019-03-10T15:10:32.141Z,9.02
2019-03-10T15:12:58.276Z,8.99
2019-03-10T15:15:24.579Z,8.97
2019-03-10T15:17:51.139Z,8.97
2019-03-10T15:20:17.122Z,8.98
2019-03-10T15:22:43.049Z,8.98
2019-03-10T15:25:15.493Z,8.99
2019-03-10T15:27:41.464Z,8.95
2019-03-10T15:30:21.298Z,8.91
2019-03-10T15:32:47.264Z,8.83
2019-03-10T15:35:13.215Z,8.77
2019-03-10T15:37:39.377Z,8.77
2019-03-10T15:40:31.678Z,8.74
2019-03-10T15:42:57.609Z,8.67
2019-03-10T15:45:28.078Z,8.65
2019-03-10T15:47:54.050Z,8.65
2019-03-10T15:50:29.719Z,8.63
2019-03-10T15:52:55.745Z,8.53
2019-03-10T15:55:21.652Z,8.48
2019-03-10T15:57:50.422Z,8.49
2019-03-10T16:00:21.304Z,8.50
2019-03-10T16:02:47.346Z,8.39
2019-03-10T16:05:13.375Z,8.31
2019-03-10T16:07:39.468Z,8.31
2019-03-10T16:10:08.205Z,8.24
2019-03-10T16:12:34.173Z,8.29
2019-03-10T16:15:00.395Z,8.29
2019-03-10T16:17:26.301Z,8.24
2019-03-10T16:19:52.381Z,8.15
2019-03-10T16:22:18.301Z,8.07
2019-03-10T16:24:44.258Z,8.08
2019-03-10T16:27:10.176Z,8.09
2019-03-10T16:29:36.369Z,8.04
2019-03-10T16:32:02.349Z,7.99
2019-03-10T16:34:28.259Z,7.95
2019-03-10T16:36:54.199Z,7.88
2019-03-10T16:39:20.143Z,7.81
2019-03-10T16:41:46.058Z,7.79
2019-03-10T16:44:11.980Z,7.78
2019-03-10T16:46:39.234Z,7.69
2019-03-10T16:49:05.449Z,7.62
2019-03-10T16:51:31.630Z,7.48
2019-03-10T16:53:57.646Z,7.43
2019-03-10T16:56:25.464Z,7.36
2019-03-10T16:58:51.392Z,7.34
2019-03-10T17:01:17.322Z,7.29
2019-03-10T17:03:43.357Z,7.27
2019-03-10T17:06:09.349Z,7.22
2019-03-10T17:08:35.376Z,7.20
2019-03-10T17:11:01.432Z,7.23
2019-03-10T17:13:33.663Z,7.22
2019-03-10T17:15:59.567Z,7.13
2019-03-10T17:18:27.381Z,7.04
2019-03-10T17:20:53.300Z,7.11
2019-03-10T17:23:19.230Z,7.15
2019-03-10T17:25:45.247Z,7.04
2019-03-10T17:28:11.208Z,7.13
2019-03-10T17:30:37.126Z,7.17
2019-03-10T17:33:03.062Z,7.21
2019-03-10T17:35:28.995Z,7.03
2019-03-10T17:37:55.058Z,6.90
2019-03-10T17:40:27.368Z,6.96
2019-03-10T17:42:52.470Z,7.00
2019-03-10T17:45:22.750Z,7.08
2019-03-10T17:47:48.782Z,7.15
2019-03-10T17:50:16.469Z,7.09
2019-03-10T17:52:43.249Z,7.06
2019-03-10T17:55:11.677Z,6.95
2019-03-10T17:57:37.936Z,6.82
2019-03-10T18:00:36.225Z,6.80
2019-03-10T18:03:02.495Z,6.87
2019-03-10T18:05:28.458Z,6.95
2019-03-10T18:07:54.430Z,7.00
2019-03-10T18:10:20.385Z,6.98
2019-03-10T18:12:46.417Z,6.99
2019-03-10T18:15:13.672Z,6.91
2019-03-10T18:17:39.719Z,6.91
2019-03-10T18:20:09.103Z,6.91
2019-03-10T18:22:35.020Z,6.80
2019-03-10T18:25:00.996Z,6.65
2019-03-10T18:27:26.964Z,6.67
2019-03-10T18:29:53.005Z,6.70
2019-03-10T18:32:18.948Z,6.68
2019-03-10T18:34:44.916Z,6.68
2019-03-10T18:37:10.827Z,6.71
2019-03-10T18:39:36.769Z,6.75
2019-03-10T18:42:02.806Z,6.75
2019-03-10T18:44:28.732Z,6.74
2019-03-10T18:46:54.679Z,6.75
2019-03-10T18:49:20.598Z,6.77
2019-03-10T18:51:46.591Z,6.77
2019-03-10T18:54:12.722Z,6.68
2019-03-10T18:56:38.741Z,6.71
2019-03-10T18:59:04.822Z,6.74
2019-03-10T19:01:31.010Z,6.74
2019-03-10T19:03:56.974Z,6.71
2019-03-10T19:06:23.194Z,6.72
2019-03-10T19:08:49.123Z,6.72
2019-03-10T19:11:15.042Z,6.68
2019-03-10T19:13:40.985Z,6.61
2019-03-10T19:16:07.029Z,6.58
2019-03-10T19:18:33.068Z,6.57
2019-03-10T19:20:59.100Z,6.56
2019-03-10T19:23:25.035Z,6.60
2019-03-10T19:25:50.964Z,6.60
2019-03-10T19:28:16.991Z,6.60
2019-03-10T19:30:42.916Z,6.58
2019-03-10T19:33:11.641Z,6.58
2019-03-10T19:35:37.712Z,6.53
2019-03-10T19:38:04.644Z,6.59
2019-03-10T19:40:30.885Z,6.59
2019-03-10T19:42:56.827Z,6.42
2019-03-10T19:45:23.346Z,6.36
2019-03-10T19:47:49.277Z,6.41
2019-03-10T19:50:23.668Z,6.38
2019-03-10T19:52:49.630Z,6.38
2019-03-10T19:55:15.584Z,6.40
2019-03-10T19:57:41.513Z,6.42
2019-03-10T20:38:29.662Z,5.22
2019-03-10T20:40:55.613Z,5.15
2019-03-10T20:43:21.646Z,5.15
2019-03-10T20:45:47.687Z,5.17
2019-03-10T20:48:13.606Z,5.19
2019-03-10T20:50:40.647Z,5.28
2019-03-10T20:53:06.796Z,5.32
2019-03-10T20:55:32.723Z,5.35
2019-03-10T20:57:58.649Z,5.43
2019-03-10T21:00:28.017Z,5.54
2019-03-10T21:02:53.866Z,5.60
2019-03-10T21:05:19.875Z,5.56
2019-03-10T21:07:45.802Z,5.55
2019-03-10T21:10:40.520Z,5.55
2019-03-10T21:13:06.547Z,5.49
2019-03-10T21:15:36.751Z,5.60
2019-03-10T21:18:00.438Z,5.62
2019-03-10T21:20:29.408Z,5.68
2019-03-10T21:22:55.445Z,5.72
2019-03-10T21:25:30.716Z,5.70
2019-03-10T21:27:56.652Z,5.72
2019-03-10T21:30:24.989Z,5.78
2019-03-10T21:32:51.001Z,5.82
2019-03-10T21:35:18.093Z,5.91
2019-03-10T21:37:44.437Z,5.95
2019-03-10T21:40:16.503Z,5.95
2019-03-10T21:42:42.499Z,5.98
2019-03-10T21:45:09.437Z,5.91
2019-03-10T21:47:35.401Z,5.91
2019-03-10T21:50:02.045Z,5.93
2019-03-10T21:52:28.007Z,5.95
2019-03-10T21:54:53.933Z,6.00
2019-03-10T21:57:19.854Z,6.02
2019-03-10T21:59:45.923Z,6.01
2019-03-10T22:02:11.965Z,6.03
2019-03-10T22:04:38.025Z,6.05
2019-03-10T22:07:03.957Z,6.07
2019-03-10T22:09:29.923Z,6.00
2019-03-10T22:11:55.894Z,5.94
2019-03-10T22:14:21.951Z,5.88
2019-03-10T22:16:48.070Z,5.74
2019-03-10T22:19:22.271Z,5.79
2019-03-10T22:21:41.977Z,5.83
2019-03-10T22:24:07.920Z,5.92
2019-03-10T22:26:36.881Z,6.01
2019-03-10T22:29:02.837Z,6.04
2019-03-10T22:31:28.808Z,6.09
2019-03-10T22:33:54.709Z,6.10
2019-03-10T22:36:20.728Z,6.16
2019-03-10T22:38:46.666Z,6.23
2019-03-10T22:41:12.630Z,6.29
2019-03-10T22:43:38.747Z,6.35
2019-03-10T22:46:04.763Z,6.37
2019-03-10T22:48:30.728Z,6.38
2019-03-10T22:50:56.682Z,6.47
2019-03-10T22:53:22.628Z,6.54
2019-03-10T22:55:48.657Z,6.59
2019-03-10T22:58:14.590Z,6.65
2019-03-10T23:00:44.060Z,6.68
2019-03-10T23:03:10.084Z,6.73
2019-03-10T23:05:36.021Z,6.69
2019-03-10T23:08:01.944Z,6.70
2019-03-10T23:10:27.889Z,6.72
2019-03-10T23:12:54.012Z,6.75
2019-03-10T23:15:19.940Z,6.76
2019-03-10T23:17:45.902Z,6.76
2019-03-10T23:20:15.179Z,6.77
2019-03-10T23:22:41.032Z,6.79
2019-03-10T23:25:07.080Z,6.76
2019-03-10T23:27:33.198Z,6.79
2019-03-10T23:29:59.135Z,6.74
2019-03-10T23:32:25.498Z,6.79
2019-03-10T23:34:51.447Z,6.78
2019-03-10T23:37:17.407Z,6.80
2019-03-10T23:39:44.578Z,6.77
2019-03-10T23:42:10.918Z,6.76
2019-03-10T23:44:36.970Z,6.75
2019-03-10T23:47:02.939Z,6.73
2019-03-10T23:49:28.884Z,6.70
2019-03-10T23:51:54.914Z,6.72
2019-03-10T23:54:20.884Z,6.78
2019-03-10T23:56:46.803Z,6.84
2019-03-10T23:59:12.833Z,6.90
